createdAt,value
2018-06-04T00:00:13.651Z,14.40
2018-06-04T00:02:42.719Z,14.40
2018-06-04T00:05:11.760Z,14.30
2018-06-04T00:07:40.807Z,14.30
2018-06-04T00:10:09.822Z,14.20
2018-06-04T00:12:38.865Z,14.20
2018-06-04T00:15:07.882Z,14.20
2018-06-04T00:20:05.584Z,14.10
2018-06-04T00:22:34.656Z,14.10
2018-06-04T00:25:03.692Z,14.10
2018-06-04T00:27:32.744Z,14.10
2018-06-04T00:30:01.762Z,14.10
2018-06-04T00:32:30.807Z,14.10
2018-06-04T00:34:59.825Z,14.00
2018-06-04T00:37:28.860Z,14.00
2018-06-04T00:39:57.883Z,14.00
2018-06-04T00:42:26.990Z,14.00
2018-06-04T00:44:56.047Z,14.00
2018-06-04T00:47:25.084Z,14.00
2018-06-04T00:49:54.095Z,13.90
2018-06-04T00:52:23.139Z,13.90
2018-06-04T00:54:52.156Z,13.90
2018-06-04T00:57:21.376Z,13.80
2018-06-04T00:59:50.392Z,13.80
2018-06-04T01:02:19.435Z,13.80
2018-06-04T01:04:48.469Z,13.80
2018-06-04T01:07:17.515Z,13.80
2018-06-04T01:09:46.532Z,13.80
2018-06-04T01:12:15.585Z,13.80
2018-06-04T01:14:44.604Z,13.80
2018-06-04T01:17:13.800Z,13.80
2018-06-04T01:19:42.836Z,13.80
2018-06-04T01:22:11.901Z,13.80
2018-06-04T01:24:40.952Z,13.80
2018-06-04T01:27:10.003Z,13.70
2018-06-04T01:29:39.016Z,13.70
2018-06-04T01:32:08.076Z,13.70
2018-06-04T01:34:37.160Z,13.70
2018-06-04T01:37:06.210Z,13.70
2018-06-04T01:39:35.237Z,13.70
2018-06-04T01:42:04.308Z,13.70
2018-06-04T01:44:33.332Z,13.70
2018-06-04T01:47:02.352Z,13.70
2018-06-04T01:49:31.404Z,13.60
2018-06-04T01:52:00.433Z,13.60
2018-06-04T01:54:29.477Z,13.60
2018-06-04T01:56:58.500Z,13.60
2018-06-04T01:59:27.549Z,13.60
2018-06-04T02:01:56.571Z,13.60
2018-06-04T02:04:25.624Z,13.60
2018-06-04T02:06:54.661Z,13.60
2018-06-04T02:09:23.715Z,13.60
2018-06-04T02:11:52.737Z,13.60
2018-06-04T02:14:21.784Z,13.70
2018-06-04T02:16:50.812Z,13.60
2018-06-04T02:19:20.527Z,13.70
2018-06-04T02:21:49.581Z,13.60
2018-06-04T02:24:18.629Z,13.60
2018-06-04T02:26:47.652Z,13.60
2018-06-04T02:29:16.701Z,13.70
2018-06-04T02:31:45.755Z,13.70
2018-06-04T02:34:14.791Z,13.70
2018-06-04T02:36:43.820Z,13.80
2018-06-04T02:39:12.893Z,13.80
2018-06-04T02:41:41.933Z,13.80
2018-06-04T02:44:11.010Z,13.80
2018-06-04T02:46:40.036Z,13.80
2018-06-04T02:49:09.079Z,13.90
2018-06-04T02:51:38.106Z,13.90
2018-06-04T02:54:07.188Z,13.90
2018-06-04T02:56:36.214Z,14.00
2018-06-04T02:59:05.348Z,14.00
2018-06-04T03:01:34.376Z,14.00
2018-06-04T03:04:03.437Z,14.10
2018-06-04T03:06:32.495Z,14.10
2018-06-04T03:09:01.555Z,14.10
2018-06-04T03:11:30.587Z,14.10
2018-06-04T03:13:59.646Z,14.10
2018-06-04T03:16:28.685Z,14.10
2018-06-04T03:18:57.736Z,14.10
2018-06-04T03:21:26.795Z,14.10
2018-06-04T03:23:55.856Z,14.10
2018-06-04T03:26:24.881Z,14.10
2018-06-04T03:28:53.944Z,14.20
2018-06-04T03:33:51.641Z,14.20
2018-06-04T03:36:20.716Z,14.20
2018-06-04T03:38:49.773Z,14.30
2018-06-04T03:41:19.167Z,14.30
2018-06-04T03:43:48.216Z,14.30
2018-06-04T03:46:17.265Z,14.40
2018-06-04T03:48:46.311Z,14.40
2018-06-04T03:51:15.335Z,14.40
2018-06-04T03:53:44.392Z,14.50
2018-06-04T03:56:13.423Z,14.60
2018-06-04T03:58:42.480Z,14.60
2018-06-04T04:01:11.501Z,14.70
2018-06-04T04:03:40.539Z,14.70
2018-06-04T04:06:09.569Z,14.80
2018-06-04T04:08:38.621Z,14.80
2018-06-04T04:11:07.642Z,14.90
2018-06-04T04:13:36.759Z,15.00
2018-06-04T04:16:05.804Z,15.00
2018-06-04T04:18:34.852Z,15.10
2018-06-04T04:21:03.921Z,15.20
2018-06-04T04:23:32.976Z,15.30
2018-06-04T04:26:01.999Z,15.40
2018-06-04T04:28:31.053Z,15.50
2018-06-04T04:31:00.077Z,15.60
2018-06-04T04:33:29.131Z,15.70
2018-06-04T04:35:58.152Z,15.70
2018-06-04T04:38:27.176Z,15.70
2018-06-04T04:40:56.244Z,15.80
2018-06-04T04:43:25.268Z,15.80
2018-06-04T04:48:22.959Z,16.00
2018-06-04T04:50:52.017Z,16.00
2018-06-04T04:53:21.048Z,16.10
2018-06-04T04:55:50.108Z,16.20
2018-06-04T04:58:19.136Z,16.20
2018-06-04T05:00:48.188Z,16.20
2018-06-04T05:03:17.226Z,16.20
2018-06-04T05:05:46.293Z,16.20
2018-06-04T05:08:15.313Z,16.30
2018-06-04T05:10:44.371Z,16.30
2018-06-04T05:13:13.399Z,16.30
2018-06-04T05:15:42.494Z,16.40
2018-06-04T05:18:11.516Z,16.40
2018-06-04T05:20:40.563Z,16.40
2018-06-04T05:23:09.603Z,16.40
2018-06-04T05:25:38.652Z,16.40
2018-06-04T05:28:07.675Z,16.50
2018-06-04T05:30:36.731Z,16.50
2018-06-04T05:33:05.768Z,16.50
2018-06-04T05:35:34.808Z,16.50
2018-06-04T05:38:03.876Z,16.60
2018-06-04T05:40:32.943Z,16.60
2018-06-04T05:43:01.974Z,16.70
2018-06-04T05:45:31.024Z,16.60
2018-06-04T05:48:00.048Z,16.70
2018-06-04T05:50:29.653Z,16.70
2018-06-04T05:52:58.689Z,16.70
2018-06-04T05:55:27.731Z,16.70
2018-06-04T05:57:56.768Z,16.70
2018-06-04T06:00:25.818Z,16.70
2018-06-04T06:02:54.856Z,16.80
2018-06-04T06:05:23.912Z,16.80
2018-06-04T06:07:52.921Z,16.80
2018-06-04T06:10:21.966Z,16.80
2018-06-04T06:12:50.992Z,16.80
2018-06-04T06:15:20.048Z,16.80
2018-06-04T06:17:49.084Z,16.80
2018-06-04T06:20:18.135Z,16.90
2018-06-04T06:22:47.195Z,16.90
2018-06-04T06:25:16.254Z,16.90
2018-06-04T06:27:45.283Z,16.90
2018-06-04T06:30:14.328Z,16.90
2018-06-04T06:32:43.348Z,16.90
2018-06-04T06:35:12.412Z,16.90
2018-06-04T06:37:41.459Z,16.90
2018-06-04T06:40:10.541Z,16.90
2018-06-04T06:42:39.568Z,16.90
2018-06-04T06:45:08.742Z,17.00
2018-06-04T06:47:37.862Z,17.10
2018-06-04T06:50:07.010Z,17.10
2018-06-04T06:52:36.037Z,17.20
2018-06-04T06:55:05.238Z,17.20
2018-06-04T06:57:34.411Z,17.30
2018-06-04T07:00:03.527Z,17.30
2018-06-04T07:02:32.798Z,17.30
2018-06-04T07:05:01.850Z,17.30
2018-06-04T07:09:59.552Z,17.30
2018-06-04T07:12:28.641Z,17.40
2018-06-04T07:14:58.444Z,17.40
2018-06-04T07:17:27.598Z,17.50
2018-06-04T07:19:56.676Z,17.50
2018-06-04T07:22:25.724Z,17.50
2018-06-04T07:24:54.784Z,17.50
2018-06-04T07:27:23.980Z,17.50
2018-06-04T07:29:53.048Z,17.60
2018-06-04T07:32:22.084Z,17.60
2018-06-04T07:34:51.184Z,17.70
2018-06-04T07:37:20.195Z,17.70
2018-06-04T07:39:49.308Z,17.80
2018-06-04T07:42:18.340Z,17.80
2018-06-04T07:44:47.393Z,17.80
2018-06-04T07:47:16.804Z,17.90
2018-06-04T07:49:45.871Z,17.90
2018-06-04T07:52:14.903Z,18.00
2018-06-04T07:54:44.939Z,18.00
2018-06-04T07:57:14.024Z,18.10
2018-06-04T07:59:43.138Z,18.10
2018-06-04T08:02:12.221Z,18.20
2018-06-04T08:04:41.513Z,18.20
2018-06-04T08:07:10.695Z,18.30
2018-06-04T08:09:39.843Z,18.40
2018-06-04T08:12:08.950Z,18.40
2018-06-04T08:14:39.062Z,18.40
2018-06-04T08:17:08.136Z,18.50
2018-06-04T08:19:37.394Z,18.50
2018-06-04T08:22:06.709Z,18.50
2018-06-04T08:24:35.737Z,18.40
2018-06-04T08:27:04.840Z,18.40
2018-06-04T08:29:33.882Z,18.40
2018-06-04T08:32:03.172Z,18.40
2018-06-04T08:34:32.205Z,18.40
2018-06-04T08:37:01.266Z,18.50
2018-06-04T08:39:30.332Z,18.50
2018-06-04T08:41:59.394Z,18.50
2018-06-04T08:44:28.473Z,18.40
2018-06-04T08:46:57.544Z,18.40
2018-06-04T08:49:26.627Z,18.40
2018-06-04T08:51:55.684Z,18.40
2018-06-04T08:54:24.707Z,18.40
2018-06-04T08:56:53.758Z,18.50
2018-06-04T08:59:22.784Z,18.60
2018-06-04T09:01:51.852Z,18.70
2018-06-04T09:04:20.882Z,18.70
2018-06-04T09:09:18.642Z,18.70
2018-06-04T09:11:47.879Z,18.70
2018-06-04T09:16:45.804Z,18.80
2018-06-04T09:19:14.832Z,18.80
2018-06-04T09:21:43.950Z,18.80
2018-06-04T09:24:12.968Z,18.90
2018-06-04T09:26:42.043Z,18.90
2018-06-04T09:29:11.088Z,18.90
2018-06-04T09:31:40.164Z,18.90
2018-06-04T09:34:09.190Z,18.90
2018-06-04T09:36:38.313Z,18.90
2018-06-04T09:39:07.974Z,18.80
2018-06-04T09:41:37.052Z,18.70
2018-06-04T09:44:06.122Z,18.70
2018-06-04T09:46:35.198Z,18.70
2018-06-04T09:49:04.332Z,18.70
2018-06-04T09:51:33.414Z,18.70
2018-06-04T09:54:02.470Z,18.70
2018-06-04T09:56:31.583Z,18.70
2018-06-04T10:01:29.352Z,18.70
2018-06-04T10:03:58.411Z,18.70
2018-06-04T10:06:27.437Z,18.60
2018-06-04T10:08:56.508Z,18.70
2018-06-04T10:11:25.574Z,18.70
2018-06-04T10:13:54.625Z,18.80
2018-06-04T10:16:23.661Z,18.80
2018-06-04T10:18:52.752Z,18.90
2018-06-04T10:21:21.816Z,18.90
2018-06-04T10:23:50.873Z,19.00
2018-06-04T10:26:19.900Z,19.00
2018-06-04T10:28:48.992Z,19.00
2018-06-04T10:31:18.047Z,18.90
2018-06-04T10:33:47.104Z,19.00
2018-06-04T10:38:44.821Z,19.00
2018-06-04T10:41:13.852Z,19.00
2018-06-04T10:43:42.925Z,19.00
2018-06-04T10:46:11.952Z,19.00
2018-06-04T10:48:41.001Z,19.00
2018-06-04T10:51:10.033Z,19.00
2018-06-04T10:53:39.106Z,19.00
2018-06-04T10:56:08.152Z,19.00
2018-06-04T10:58:37.220Z,19.00
2018-06-04T11:01:06.351Z,19.00
2018-06-04T11:03:35.486Z,19.00
2018-06-04T11:06:04.565Z,19.10
2018-06-04T11:08:33.631Z,19.20
2018-06-04T11:11:02.679Z,19.20
2018-06-04T11:13:31.793Z,19.20
2018-06-04T11:16:00.910Z,19.20
2018-06-04T11:18:30.024Z,19.30
2018-06-04T11:20:59.109Z,19.30
2018-06-04T11:23:28.203Z,19.30
2018-06-04T11:25:57.324Z,19.30
2018-06-04T11:28:26.350Z,19.30
2018-06-04T11:30:55.398Z,19.20
2018-06-04T11:33:24.493Z,19.20
2018-06-04T11:35:53.517Z,19.30
2018-06-04T11:38:22.584Z,19.30
2018-06-04T11:40:51.745Z,19.30
2018-06-04T11:43:29.976Z,19.30
2018-06-04T11:48:29.193Z,19.30
2018-06-04T11:50:58.294Z,19.40
2018-06-04T11:53:27.688Z,19.30
2018-06-04T11:55:57.216Z,19.30
2018-06-04T11:58:26.296Z,19.30
2018-06-04T12:00:55.405Z,19.40
2018-06-04T12:03:25.329Z,19.40
2018-06-04T12:05:54.382Z,19.40
2018-06-04T12:08:23.432Z,19.50
2018-06-04T12:10:52.582Z,19.50
2018-06-04T12:15:50.975Z,19.50
2018-06-04T12:18:24.587Z,19.50
2018-06-04T12:20:53.780Z,19.60
2018-06-04T12:23:22.853Z,19.70
2018-06-04T12:25:52.891Z,19.80
2018-06-04T12:28:21.971Z,19.80
2018-06-04T12:30:51.538Z,19.90
2018-06-04T12:33:20.586Z,19.80
2018-06-04T12:35:49.624Z,19.80
2018-06-04T12:38:18.709Z,19.80
2018-06-04T12:40:47.748Z,19.80
2018-06-04T12:43:16.802Z,19.80
2018-06-04T12:45:45.815Z,20.00
2018-06-04T12:48:14.851Z,20.00
2018-06-04T12:53:12.544Z,20.10
2018-06-04T12:55:41.579Z,20.00
2018-06-04T12:58:10.671Z,19.90
2018-06-04T13:00:39.697Z,19.80
2018-06-04T13:03:08.763Z,19.80
2018-06-04T13:05:37.787Z,19.80
2018-06-04T13:10:35.482Z,19.80
2018-06-04T13:13:04.527Z,19.90
2018-06-04T13:15:33.592Z,19.90
2018-06-04T13:18:02.641Z,20.00
2018-06-04T13:20:31.725Z,20.00
2018-06-04T13:23:00.864Z,20.10
2018-06-04T13:25:29.907Z,20.10
2018-06-04T13:27:58.989Z,20.20
2018-06-04T13:30:28.055Z,20.30
2018-06-04T13:32:57.112Z,20.30
2018-06-04T13:35:26.206Z,20.30
2018-06-04T13:37:55.271Z,20.30
2018-06-04T13:40:24.345Z,20.20
2018-06-04T13:42:53.367Z,20.20
2018-06-04T13:45:22.542Z,20.20
2018-06-04T13:47:51.607Z,20.20
2018-06-04T13:52:50.518Z,20.50
2018-06-04T13:55:19.713Z,20.50
2018-06-04T13:57:48.745Z,20.60
2018-06-04T14:00:17.904Z,20.60
2018-06-04T14:02:47.133Z,20.70
2018-06-04T14:05:16.330Z,20.70
2018-06-04T14:07:45.524Z,20.70
2018-06-04T14:10:14.726Z,20.70
2018-06-04T14:12:43.834Z,20.80
2018-06-04T14:15:12.921Z,20.80
2018-06-04T14:17:41.955Z,20.90
2018-06-04T14:20:11.080Z,20.90
2018-06-04T14:22:40.141Z,21.00
2018-06-04T14:25:09.236Z,21.10
2018-06-04T14:27:38.344Z,21.10
2018-06-04T14:30:07.427Z,21.20
2018-06-04T14:32:36.633Z,21.20
2018-06-04T14:35:05.737Z,21.20
2018-06-04T14:37:34.827Z,21.30
2018-06-04T14:40:04.127Z,21.50
2018-06-04T14:45:02.307Z,21.50
2018-06-04T14:47:31.445Z,21.60
2018-06-04T14:50:00.677Z,21.50
2018-06-04T14:52:29.793Z,21.50
2018-06-04T14:54:59.185Z,21.50
2018-06-04T14:57:28.257Z,21.40
2018-06-04T14:59:57.415Z,21.40
2018-06-04T15:02:26.522Z,21.40
2018-06-04T15:04:55.609Z,21.20
2018-06-04T15:09:53.352Z,21.30
2018-06-04T15:12:22.396Z,21.30
2018-06-04T15:14:51.480Z,21.40
2018-06-04T15:17:20.492Z,21.40
2018-06-04T15:19:49.768Z,21.40
2018-06-04T15:22:18.858Z,21.40
2018-06-04T15:27:16.551Z,21.30
2018-06-04T15:29:45.676Z,21.20
2018-06-04T15:32:14.727Z,21.20
2018-06-04T15:34:43.788Z,21.20
2018-06-04T15:37:12.945Z,21.30
2018-06-04T15:39:41.993Z,21.40
2018-06-04T15:42:11.318Z,21.40
2018-06-04T15:44:40.415Z,21.40
2018-06-04T15:49:38.354Z,21.30
2018-06-04T15:52:07.752Z,21.40
2018-06-04T15:54:37.113Z,21.50
2018-06-04T15:57:06.397Z,21.60
2018-06-04T15:59:35.624Z,21.70
2018-06-04T16:02:05.034Z,21.90
2018-06-04T16:04:34.538Z,22.00
2018-06-04T16:07:03.628Z,22.00
2018-06-04T16:09:32.724Z,21.90
2018-06-04T16:12:01.871Z,21.80
2018-06-04T16:14:31.141Z,21.80
2018-06-04T16:17:00.312Z,21.70
2018-06-04T16:19:29.440Z,21.60
2018-06-04T16:21:58.579Z,21.50
2018-06-04T16:24:27.750Z,21.50
2018-06-04T16:26:56.976Z,21.50
2018-06-04T16:29:26.184Z,21.50
2018-06-04T16:31:55.274Z,21.50
2018-06-04T16:34:24.307Z,21.50
2018-06-04T16:36:53.772Z,21.50
2018-06-04T16:39:23.225Z,21.50
2018-06-04T16:41:52.333Z,21.50
2018-06-04T16:44:21.640Z,21.60
2018-06-04T16:46:50.723Z,21.50
2018-06-04T16:49:19.804Z,21.50
2018-06-04T16:51:48.875Z,21.50
2018-06-04T16:54:17.918Z,21.50
2018-06-04T16:56:47.090Z,21.40
2018-06-04T16:59:16.258Z,21.20
2018-06-04T17:01:45.407Z,21.20
2018-06-04T17:04:14.529Z,21.20
2018-06-04T17:06:43.607Z,21.10
2018-06-04T17:09:12.675Z,21.10
2018-06-04T17:11:42.047Z,21.10
2018-06-04T17:14:11.153Z,21.10
2018-06-04T17:16:40.335Z,21.10
2018-06-04T17:19:09.428Z,21.10
2018-06-04T17:21:38.552Z,21.00
2018-06-04T17:24:07.624Z,21.00
2018-06-04T17:26:36.783Z,21.00
2018-06-04T17:29:05.881Z,21.00
2018-06-04T17:31:34.940Z,21.00
2018-06-04T17:34:04.017Z,20.90
2018-06-04T17:36:33.113Z,20.90
2018-06-04T17:39:02.170Z,20.80
2018-06-04T17:41:31.244Z,20.80
2018-06-04T17:44:00.392Z,20.70
2018-06-04T17:46:29.619Z,20.70
2018-06-04T17:48:58.960Z,20.70
2018-06-04T17:51:28.121Z,20.60
2018-06-04T17:53:57.248Z,20.60
2018-06-04T17:58:55.540Z,20.50
2018-06-04T18:01:24.762Z,20.40
2018-06-04T18:03:54.111Z,20.40
2018-06-04T18:06:23.485Z,20.30
2018-06-04T18:08:52.850Z,20.30
2018-06-04T18:11:21.980Z,20.30
2018-06-04T18:13:51.206Z,20.30
2018-06-04T18:16:20.482Z,20.30
2018-06-04T18:18:49.619Z,20.20
2018-06-04T18:21:18.786Z,20.20
2018-06-04T18:23:47.995Z,20.20
2018-06-04T18:26:17.128Z,20.20
2018-06-04T18:28:46.621Z,20.10
2018-06-04T18:31:15.987Z,20.10
2018-06-04T18:33:45.147Z,20.10
2018-06-04T18:36:14.245Z,20.00
2018-06-04T18:38:43.692Z,20.00
2018-06-04T18:41:12.860Z,20.00
2018-06-04T18:43:41.995Z,19.90
2018-06-04T18:46:11.130Z,19.90
2018-06-04T18:48:40.408Z,19.80
2018-06-04T18:51:09.663Z,19.80
2018-06-04T18:53:38.884Z,19.80
2018-06-04T18:56:08.144Z,19.70
2018-06-04T18:58:37.294Z,19.70
2018-06-04T19:01:06.654Z,19.60
2018-06-04T19:03:35.766Z,19.60
2018-06-04T19:06:04.919Z,19.50
2018-06-04T19:08:34.196Z,19.50
2018-06-04T19:11:03.292Z,19.50
2018-06-04T19:13:32.561Z,19.40
2018-06-04T19:16:01.667Z,19.40
2018-06-04T19:18:31.656Z,19.30
2018-06-04T19:21:00.941Z,19.30
2018-06-04T19:25:59.409Z,19.20
2018-06-04T19:28:28.693Z,19.10
2018-06-04T19:30:58.589Z,19.00
2018-06-04T19:33:27.959Z,19.00
2018-06-04T19:35:57.167Z,18.90
2018-06-04T19:38:26.372Z,18.80
2018-06-04T19:40:55.551Z,18.70
2018-06-04T19:43:24.804Z,18.70
2018-06-04T19:45:53.993Z,18.60
2018-06-04T19:48:23.220Z,18.60
2018-06-04T19:50:52.404Z,18.50
2018-06-04T19:53:21.562Z,18.50
2018-06-04T19:55:50.662Z,18.40
2018-06-04T19:58:19.895Z,18.30
2018-06-04T20:00:49.554Z,18.30
2018-06-04T20:03:18.862Z,18.20
2018-06-04T20:05:48.227Z,18.10
2018-06-04T20:08:17.455Z,18.00
2018-06-04T20:10:46.610Z,17.90
2018-06-04T20:13:15.948Z,17.80
2018-06-04T20:15:45.123Z,17.80
2018-06-04T20:18:14.410Z,17.70
2018-06-04T20:20:43.801Z,17.60
2018-06-04T20:23:12.918Z,17.50
2018-06-04T20:25:41.984Z,17.50
2018-06-04T20:28:11.253Z,17.30
2018-06-04T20:30:40.325Z,17.30
2018-06-04T20:33:09.459Z,17.20
2018-06-04T20:35:38.592Z,17.00
2018-06-04T20:38:07.726Z,17.00
2018-06-04T20:40:36.864Z,16.90
2018-06-04T20:43:06.042Z,16.80
2018-06-04T20:45:35.103Z,16.70
2018-06-04T20:48:04.260Z,16.60
2018-06-04T20:50:33.310Z,16.50
2018-06-04T20:53:02.425Z,16.50
2018-06-04T20:55:31.540Z,16.40
2018-06-04T20:58:00.589Z,16.30
2018-06-04T21:00:29.680Z,16.20
2018-06-04T21:02:58.707Z,16.10
2018-06-04T21:05:28.219Z,16.00
2018-06-04T21:07:57.355Z,16.00
2018-06-04T21:10:26.550Z,15.90
2018-06-04T21:12:55.684Z,15.90
2018-06-04T21:15:24.795Z,15.80
2018-06-04T21:17:53.842Z,15.80
2018-06-04T21:20:22.945Z,15.80
2018-06-04T21:22:52.019Z,15.80
2018-06-04T21:25:21.199Z,15.80
2018-06-04T21:27:50.267Z,15.80
2018-06-04T21:30:19.381Z,15.70
2018-06-04T21:32:48.506Z,15.70
2018-06-04T21:35:17.599Z,15.60
2018-06-04T21:37:46.720Z,15.60
2018-06-04T21:40:15.769Z,15.60
2018-06-04T21:42:44.967Z,15.50
2018-06-04T21:45:14.136Z,15.50
2018-06-04T21:47:43.175Z,15.50
2018-06-04T21:50:12.278Z,15.40
2018-06-04T21:52:41.356Z,15.40
2018-06-04T21:55:10.447Z,15.30
2018-06-04T21:57:39.467Z,15.30
2018-06-04T22:00:09.795Z,15.20
2018-06-04T22:02:38.879Z,15.20
2018-06-04T22:05:07.932Z,15.10
2018-06-04T22:07:36.991Z,15.10
2018-06-04T22:10:06.835Z,15.00
2018-06-04T22:12:35.892Z,15.00
2018-06-04T22:17:33.710Z,14.90
2018-06-04T22:20:02.776Z,14.90
2018-06-04T22:22:31.877Z,14.80
2018-06-04T22:32:26.975Z,14.70
2018-06-04T22:34:56.023Z,14.70
2018-06-04T22:37:25.117Z,14.70
2018-06-04T22:39:54.186Z,14.60
2018-06-04T22:42:23.235Z,14.60
2018-06-04T22:44:52.275Z,14.50
2018-06-04T22:47:21.415Z,14.50
2018-06-04T22:49:50.495Z,14.40
2018-06-04T22:52:19.518Z,14.40
2018-06-04T22:54:48.714Z,14.30
2018-06-04T22:57:17.720Z,14.30
2018-06-04T22:59:46.786Z,14.20
2018-06-04T23:02:15.911Z,14.10
2018-06-04T23:04:45.038Z,14.10
2018-06-04T23:07:14.108Z,14.10
2018-06-04T23:09:43.223Z,14.00
2018-06-04T23:12:12.301Z,14.00
2018-06-04T23:14:41.399Z,14.00
2018-06-04T23:17:10.497Z,13.90
2018-06-04T23:19:39.584Z,13.80
2018-06-04T23:22:08.753Z,13.80
2018-06-04T23:24:37.852Z,13.80
2018-06-04T23:27:06.972Z,13.80
2018-06-04T23:29:36.014Z,13.80
2018-06-04T23:32:05.035Z,13.80
2018-06-04T23:34:34.076Z,13.80
2018-06-04T23:37:03.172Z,13.80
2018-06-04T23:39:32.223Z,13.80
2018-06-04T23:42:01.247Z,13.80
2018-06-04T23:44:30.312Z,13.80
2018-06-04T23:46:59.322Z,13.80
2018-06-04T23:49:28.376Z,13.80
2018-06-04T23:51:57.434Z,13.70
2018-06-04T23:54:26.491Z,13.80
2018-06-04T23:56:55.544Z,13.80
2018-06-04T23:59:24.583Z,13.80
